Adah, Pennsylvania
Current Conditions -  °F | °C
As of 5:01 AM on Sunday 25 Jan 2015 (Local Time) from KMGW Reporting Station
Haze Haze  
Wind Chill: -4°   Ceiling: 900
Heat Index:   Visibility: 6mi
Dew Point: -2°   Wind: 8mph
Humidity: 85%   Direction: 210°SSW
Pressure: 29.77"   Gusts: NA
Location:  39.9°N, 79.92°W
Report Text: KMGW 251001Z AUTO 21007KT 6SM BR OVC009 00/M02 A2977 RMK AO2 CIG 007V013 T00001022 TSNO
Loading
Personal Weather Stations






























Interactive Weather Map New forecast layout! Learn more

10-Day Weather Forecast

Advertisements
Track Severe Weather on mobile